Time;durP1;ratioP1;P1;durP2;ratioP2;P2;SDS_P1;SDS_P2;PMS_P1;PMS_P2;Temp;Humidity;BMP_temperature;BMP_pressure;BME280_temperature;BME280_humidity;BME280_pressure;Samples;Min_cycle;Max_cycle;Signal;HPM_P1;HPM_P2
2024/02/28 00:02:04;;;;;;;26.80;13.43;;;1.30;99.90;;;;;;5096582;28;20558;-84
2024/02/28 00:04:31;;;;;;;27.37;14.80;;;1.30;99.90;;;;;;5093699;28;20492;-83
2024/02/28 00:06:59;;;;;;;27.53;14.77;;;1.20;99.90;;;;;;5103275;28;20420;-84
2024/02/28 00:09:26;;;;;;;29.73;14.47;;;1.20;99.90;;;;;;5102970;28;20435;-85
2024/02/28 00:11:53;;;;;;;26.20;13.70;;;1.20;99.90;;;;;;5103909;28;20452;-82
2024/02/28 00:14:20;;;;;;;29.90;13.70;;;1.20;99.90;;;;;;5103257;28;20549;-84
2024/02/28 00:16:47;;;;;;;27.90;13.33;;;1.20;99.90;;;;;;5100968;28;20469;-84
2024/02/28 00:19:15;;;;;;;36.20;14.70;;;1.20;99.90;;;;;;5103203;28;20484;-84
2024/02/28 00:21:42;;;;;;;32.67;13.63;;;1.10;99.90;;;;;;5102533;28;20423;-84
2024/02/28 00:24:11;;;;;;;30.53;14.30;;;1.10;99.90;;;;;;5103009;28;20463;-84
2024/02/28 00:26:42;;;;;;;29.90;15.00;;;1.10;99.90;;;;;;5100797;28;21015;-83
2024/02/28 00:29:12;;;;;;;35.33;15.63;;;1.10;99.90;;;;;;5112665;28;20415;-84
2024/02/28 00:31:39;;;;;;;29.40;15.90;;;1.10;99.90;;;;;;5085002;28;20445;-84
2024/02/28 00:34:08;;;;;;;30.60;14.40;;;1.10;99.90;;;;;;5093278;28;20526;-83
2024/02/28 00:36:35;;;;;;;36.20;14.90;;;1.10;99.90;;;;;;5092905;28;20822;-84
2024/02/28 00:39:03;;;;;;;29.70;16.00;;;1.10;99.90;;;;;;5105896;28;20507;-83
2024/02/28 00:41:34;;;;;;;37.97;17.03;;;1.00;99.90;;;;;;5103773;27;20822;-83
2024/02/28 00:44:01;;;;;;;30.87;16.20;;;1.00;99.90;;;;;;5094882;28;21029;-83
2024/02/28 00:46:27;;;;;;;31.30;14.53;;;1.00;99.90;;;;;;5092094;28;20923;-83
2024/02/28 00:48:54;;;;;;;30.10;14.50;;;0.90;99.90;;;;;;5093311;28;20448;-84
2024/02/28 00:51:21;;;;;;;33.17;16.23;;;0.90;99.90;;;;;;5101061;28;20936;-84
2024/02/28 00:53:48;;;;;;;30.17;16.87;;;0.90;99.90;;;;;;5087523;28;20483;-83
2024/02/28 00:56:15;;;;;;;28.27;14.53;;;0.90;99.90;;;;;;5096984;28;20876;-83
2024/02/28 00:58:45;;;;;;;30.77;15.83;;;0.90;99.90;;;;;;5119969;28;20516;-83
2024/02/28 01:01:12;;;;;;;26.80;14.40;;;0.90;99.90;;;;;;5113313;28;20457;-83
2024/02/28 01:03:39;;;;;;;29.27;13.43;;;0.90;99.90;;;;;;5100903;28;20440;-83
2024/02/28 01:06:06;;;;;;;30.13;13.73;;;0.90;99.90;;;;;;5098021;28;20568;-83
2024/02/28 01:08:33;;;;;;;30.37;15.27;;;1.00;99.90;;;;;;5094802;28;20453;-82
2024/02/28 01:11:00;;;;;;;27.40;15.00;;;1.00;99.90;;;;;;5115360;28;20442;-82
2024/02/28 01:13:26;;;;;;;30.07;13.80;;;0.90;99.90;;;;;;5099317;28;20714;-83
2024/02/28 01:15:55;;;;;;;25.53;14.07;;;0.90;99.90;;;;;;5102018;28;20417;-83
2024/02/28 01:18:21;;;;;;;24.67;12.20;;;0.90;99.90;;;;;;5107392;28;20806;-82
2024/02/28 01:20:48;;;;;;;26.47;14.23;;;0.90;99.90;;;;;;5100363;28;20427;-84
2024/02/28 01:23:15;;;;;;;32.90;16.70;;;0.90;99.90;;;;;;5101649;28;20451;-83
2024/02/28 01:25:42;;;;;;;28.17;13.50;;;0.90;99.90;;;;;;5101414;28;20486;-83
2024/02/28 01:28:08;;;;;;;32.33;14.50;;;0.90;99.90;;;;;;5106005;28;20442;-83
2024/02/28 01:30:35;;;;;;;28.00;13.53;;;0.90;99.90;;;;;;5100406;28;20456;-83
2024/02/28 01:33:04;;;;;;;33.27;14.23;;;0.80;99.90;;;;;;5104340;28;20440;-83
2024/02/28 01:35:31;;;;;;;26.63;15.93;;;0.90;99.90;;;;;;5101676;27;20511;-83
2024/02/28 01:37:58;;;;;;;31.23;14.70;;;0.90;99.90;;;;;;5105653;28;20426;-83
2024/02/28 01:40:24;;;;;;;27.50;13.77;;;0.90;99.90;;;;;;5100077;28;20424;-83
2024/02/28 01:42:51;;;;;;;28.67;14.60;;;0.90;99.90;;;;;;5099641;28;20444;-83
2024/02/28 01:45:18;;;;;;;28.63;15.13;;;0.80;99.90;;;;;;5100082;28;20490;-83
2024/02/28 01:47:45;;;;;;;32.07;14.33;;;0.90;99.90;;;;;;5093382;28;20453;-83
2024/02/28 01:50:14;;;;;;;28.30;15.03;;;0.90;99.90;;;;;;5117540;28;20443;-83
2024/02/28 01:52:42;;;;;;;32.40;15.43;;;1.00;99.90;;;;;;5098684;28;20569;-83
2024/02/28 01:55:10;;;;;;;25.10;13.73;;;1.00;99.90;;;;;;5100544;28;20421;-84
2024/02/28 01:57:38;;;;;;;30.80;15.63;;;1.00;99.90;;;;;;5100203;28;20450;-84
2024/02/28 02:00:08;;;;;;;34.67;18.03;;;1.00;99.90;;;;;;5100127;28;20473;-84
2024/02/28 02:02:36;;;;;;;26.57;15.50;;;1.00;99.90;;;;;;5100104;28;20440;-83
2024/02/28 02:05:04;;;;;;;30.87;14.07;;;1.00;99.90;;;;;;5097509;28;20452;-84
2024/02/28 02:07:35;;;;;;;35.47;15.83;;;1.10;99.90;;;;;;5102105;28;20453;-83
2024/02/28 02:10:08;;;;;;;31.77;17.80;;;1.00;99.90;;;;;;5105800;28;20442;-83
2024/02/28 02:12:40;;;;;;;35.50;15.80;;;1.00;99.90;;;;;;5106078;28;20509;-83
2024/02/28 02:15:10;;;;;;;31.07;15.53;;;1.00;99.90;;;;;;5115897;28;20440;-83
2024/02/28 02:17:53;;;;;;;32.60;15.80;;;1.10;99.90;;;;;;5119938;28;20447;-84
2024/02/28 02:20:26;;;;;;;34.03;15.93;;;1.20;99.90;;;;;;5103722;28;20453;-85
2024/02/28 02:23:00;;;;;;;32.60;15.20;;;1.30;99.90;;;;;;5097912;28;21102;-82
2024/02/28 02:25:29;;;;;;;34.93;15.73;;;1.40;99.90;;;;;;5107307;28;20446;-84
2024/02/28 02:27:59;;;;;;;32.67;18.10;;;1.70;99.90;;;;;;5098263;28;20428;-83
2024/02/28 02:30:32;;;;;;;42.70;18.70;;;1.80;99.90;;;;;;5097627;28;20489;-83
2024/02/28 02:33:06;;;;;;;40.00;17.80;;;1.70;99.90;;;;;;5097956;28;20456;-84
2024/02/28 02:35:47;;;;;;;38.90;19.30;;;2.00;99.90;;;;;;5098170;28;20434;-83
2024/02/28 02:38:21;;;;;;;42.17;17.70;;;2.00;99.90;;;;;;5082149;28;20429;-82
2024/02/28 02:41:05;;;;;;;36.70;19.70;;;2.70;99.90;;;;;;5098345;28;20462;-83
2024/02/28 02:43:39;;;;;;;35.70;17.67;;;2.30;99.90;;;;;;5098751;28;20478;-82
2024/02/28 02:46:17;;;;;;;41.90;19.17;;;2.40;99.90;;;;;;5099624;27;20451;-83
2024/02/28 02:48:47;;;;;;;38.57;19.83;;;2.50;99.90;;;;;;5098642;28;20867;-82
2024/02/28 02:51:14;;;;;;;41.23;22.50;;;2.60;99.90;;;;;;5100303;28;20829;-81
2024/02/28 02:53:42;;;;;;;43.47;22.13;;;2.80;99.90;;;;;;5088559;28;20480;-82
2024/02/28 02:56:09;;;;;;;47.17;22.80;;;2.90;99.90;;;;;;5096822;28;20443;-83
2024/02/28 02:58:36;;;;;;;48.30;20.97;;;2.90;99.90;;;;;;5106008;28;20592;-83
2024/02/28 03:01:04;;;;;;;57.17;26.13;;;3.00;99.90;;;;;;5096284;28;20478;-84
2024/02/28 03:03:30;;;;;;;64.07;28.07;;;3.00;99.90;;;;;;5097287;28;20585;-84
2024/02/28 03:05:57;;;;;;;68.57;27.50;;;3.00;99.90;;;;;;5088908;28;20497;-84
2024/02/28 03:08:24;;;;;;;80.70;29.23;;;3.00;99.90;;;;;;5097496;28;20418;-83
2024/02/28 03:10:52;;;;;;;54.23;24.60;;;3.10;99.90;;;;;;5097831;28;20428;-84
2024/02/28 03:13:19;;;;;;;75.37;29.50;;;3.20;99.90;;;;;;5100441;28;21044;-82
2024/02/28 03:15:46;;;;;;;60.80;27.90;;;3.10;99.90;;;;;;5097813;28;20814;-81
2024/02/28 03:18:13;;;;;;;85.10;30.40;;;3.00;99.90;;;;;;5101167;28;20512;-84
2024/02/28 03:20:39;;;;;;;66.40;30.67;;;3.20;99.90;;;;;;5106701;28;20453;-81
2024/02/28 03:23:06;;;;;;;73.10;31.80;;;3.30;99.90;;;;;;5098550;28;20992;-81
2024/02/28 03:25:33;;;;;;;79.00;29.93;;;3.30;99.90;;;;;;5098463;28;20492;-82
2024/02/28 03:28:02;;;;;;;100.90;36.20;;;3.20;99.90;;;;;;5099762;28;20553;-82
2024/02/28 03:30:28;;;;;;;68.20;28.97;;;3.20;99.90;;;;;;5098353;28;20946;-82
2024/02/28 03:32:55;;;;;;;70.00;30.13;;;3.30;99.90;;;;;;5098203;28;20477;-82
2024/02/28 03:35:22;;;;;;;79.03;31.47;;;3.20;99.90;;;;;;5098041;28;20418;-84
2024/02/28 03:37:49;;;;;;;79.97;33.20;;;3.30;99.90;;;;;;5097501;28;20455;-82
2024/02/28 03:40:16;;;;;;;83.37;33.57;;;3.30;99.90;;;;;;5103686;28;20422;-82
2024/02/28 03:42:42;;;;;;;85.43;34.23;;;3.40;99.90;;;;;;5099996;28;20536;-83
2024/02/28 03:45:11;;;;;;;69.13;30.60;;;3.40;99.90;;;;;;5089901;28;20481;-83
2024/02/28 03:47:37;;;;;;;77.43;33.03;;;3.40;99.90;;;;;;5097018;28;20820;-83
2024/02/28 03:50:05;;;;;;;69.10;28.37;;;3.40;99.90;;;;;;5098516;28;20444;-83
2024/02/28 03:52:32;;;;;;;101.67;37.47;;;3.40;99.90;;;;;;5097445;28;20986;-83
2024/02/28 03:54:58;;;;;;;69.13;29.77;;;3.40;99.90;;;;;;5097893;28;20477;-82
2024/02/28 03:57:24;;;;;;;77.40;33.83;;;3.40;99.90;;;;;;5097552;28;20454;-84
2024/02/28 03:59:51;;;;;;;82.80;30.87;;;3.40;99.90;;;;;;5098831;28;20427;-82
2024/02/28 04:02:19;;;;;;;72.27;29.00;;;3.40;99.90;;;;;;5094714;28;20455;-84
2024/02/28 04:04:46;;;;;;;78.30;30.90;;;3.40;99.90;;;;;;5098541;28;20452;-83
2024/02/28 04:07:13;;;;;;;88.43;33.07;;;3.50;99.90;;;;;;5107719;28;20495;-82
2024/02/28 04:09:40;;;;;;;66.77;31.70;;;3.40;99.90;;;;;;5108222;28;20462;-83
2024/02/28 04:12:07;;;;;;;91.00;35.73;;;3.50;99.90;;;;;;5091340;28;20856;-80
2024/02/28 04:14:34;;;;;;;80.20;34.27;;;3.50;99.90;;;;;;5102081;28;20573;-82
2024/02/28 04:17:01;;;;;;;87.43;35.10;;;3.50;99.90;;;;;;5097233;28;20458;-82
2024/02/28 04:19:29;;;;;;;107.60;39.10;;;3.50;99.90;;;;;;5078898;28;20965;-82
2024/02/28 04:21:56;;;;;;;74.63;33.20;;;3.60;99.90;;;;;;5082920;28;20477;-83
2024/02/28 04:24:23;;;;;;;83.07;36.50;;;3.60;99.90;;;;;;5096954;28;20480;-83
2024/02/28 04:26:53;;;;;;;92.70;35.40;;;3.60;99.90;;;;;;5092317;28;20480;-83
2024/02/28 04:29:21;;;;;;;87.63;36.77;;;3.70;99.90;;;;;;5092740;28;20445;-83
2024/02/28 04:31:48;;;;;;;118.53;42.50;;;3.70;99.90;;;;;;5076515;28;20472;-83
2024/02/28 04:34:16;;;;;;;109.33;37.70;;;3.60;99.90;;;;;;5084262;28;20577;-83
2024/02/28 04:36:47;;;;;;;90.87;37.00;;;3.60;99.90;;;;;;5076293;28;20454;-83
2024/02/28 04:39:15;;;;;;;87.23;36.50;;;3.70;99.90;;;;;;5092891;28;20451;-83
2024/02/28 04:41:46;;;;;;;97.40;37.30;;;3.70;99.90;;;;;;5096341;28;20455;-83
2024/02/28 04:44:15;;;;;;;93.17;35.80;;;3.70;99.90;;;;;;5096387;28;20481;-82
2024/02/28 04:46:42;;;;;;;97.13;38.57;;;3.80;99.90;;;;;;5095704;28;20483;-84
2024/02/28 04:49:10;;;;;;;87.10;36.83;;;3.90;99.90;;;;;;5098157;28;20442;-83
2024/02/28 04:51:38;;;;;;;95.40;35.80;;;3.90;99.90;;;;;;5099590;28;21030;-83
2024/02/28 04:54:06;;;;;;;97.40;38.53;;;3.80;99.90;;;;;;5099883;28;21022;-81
2024/02/28 04:56:35;;;;;;;82.70;34.63;;;4.00;99.90;;;;;;5100401;28;20507;-83
2024/02/28 04:59:03;;;;;;;90.07;36.47;;;4.00;99.90;;;;;;5100143;28;20937;-83
2024/02/28 05:01:31;;;;;;;76.17;34.30;;;4.10;99.90;;;;;;5100882;28;20463;-83
2024/02/28 05:03:58;;;;;;;72.50;33.20;;;4.10;99.90;;;;;;5099632;28;20547;-83
2024/02/28 05:06:24;;;;;;;89.87;36.63;;;4.10;99.90;;;;;;5098815;28;20499;-83
2024/02/28 05:08:51;;;;;;;83.47;34.67;;;4.10;99.90;;;;;;5092023;28;20465;-82
2024/02/28 05:11:19;;;;;;;84.97;35.07;;;4.10;99.90;;;;;;5099311;28;20461;-82
2024/02/28 05:13:46;;;;;;;92.20;38.17;;;4.20;99.90;;;;;;5100476;28;20473;-82
2024/02/28 05:16:14;;;;;;;97.77;38.07;;;4.10;99.90;;;;;;5099435;28;20456;-82
2024/02/28 05:18:40;;;;;;;81.90;32.87;;;4.10;99.90;;;;;;5100855;28;20444;-81
2024/02/28 05:21:07;;;;;;;76.33;33.33;;;4.20;99.90;;;;;;5100485;28;20823;-82
2024/02/28 05:23:34;;;;;;;84.97;35.77;;;4.30;99.90;;;;;;5100752;28;20556;-82
2024/02/28 05:26:03;;;;;;;71.93;34.40;;;4.30;99.90;;;;;;5095031;28;20490;-84
2024/02/28 05:28:33;;;;;;;88.37;37.70;;;4.30;99.90;;;;;;5099725;28;20449;-84
2024/02/28 05:31:00;;;;;;;75.57;35.90;;;4.40;99.90;;;;;;5093505;28;20506;-83
2024/02/28 05:33:27;;;;;;;73.80;35.40;;;4.40;99.90;;;;;;5099250;28;20897;-83
2024/02/28 05:35:53;;;;;;;79.53;34.37;;;4.40;99.90;;;;;;5099944;28;20449;-82
2024/02/28 05:38:20;;;;;;;75.70;35.90;;;4.40;99.90;;;;;;5091500;28;20553;-83
2024/02/28 05:40:48;;;;;;;72.20;33.47;;;4.50;99.90;;;;;;5100798;28;20443;-83
2024/02/28 05:43:15;;;;;;;72.63;34.87;;;4.60;99.90;;;;;;5084476;28;20560;-83
2024/02/28 05:45:43;;;;;;;73.17;36.37;;;4.60;99.90;;;;;;5080794;28;20850;-84
2024/02/28 05:48:10;;;;;;;74.07;35.57;;;4.60;99.90;;;;;;5080311;28;20457;-84
2024/02/28 05:50:37;;;;;;;63.67;30.37;;;4.60;99.90;;;;;;5080726;28;20455;-83
2024/02/28 05:53:04;;;;;;;81.57;32.53;;;4.50;99.90;;;;;;5086297;28;20567;-83
2024/02/28 05:55:31;;;;;;;83.30;35.20;;;4.60;99.90;;;;;;5089976;28;20548;-84
2024/02/28 05:57:57;;;;;;;70.33;35.07;;;4.60;99.90;;;;;;5099730;28;20456;-82
2024/02/28 06:00:24;;;;;;;68.03;31.50;;;4.60;99.90;;;;;;5105460;28;20494;-82
2024/02/28 06:02:52;;;;;;;69.43;32.80;;;4.60;99.90;;;;;;5105230;28;20567;-82
2024/02/28 06:05:23;;;;;;;70.23;31.23;;;4.70;99.90;;;;;;5088686;28;20945;-82
2024/02/28 06:07:49;;;;;;;72.10;32.13;;;4.80;99.90;;;;;;5097265;28;20488;-82
2024/02/28 06:10:16;;;;;;;67.87;32.60;;;4.80;99.90;;;;;;5098516;28;20994;-83
2024/02/28 06:12:43;;;;;;;70.23;34.30;;;4.80;99.90;;;;;;5095524;28;20484;-83
2024/02/28 06:15:10;;;;;;;80.67;34.57;;;4.70;99.90;;;;;;5078902;28;20447;-82
2024/02/28 06:17:37;;;;;;;65.83;32.53;;;4.60;99.90;;;;;;5081826;28;20453;-83
2024/02/28 06:20:07;;;;;;;70.03;32.73;;;4.60;99.90;;;;;;5092367;28;21041;-84
2024/02/28 06:22:33;;;;;;;66.13;32.10;;;4.70;99.90;;;;;;5093444;28;20455;-82
2024/02/28 06:25:00;;;;;;;62.17;31.10;;;4.70;99.90;;;;;;5105648;28;20444;-82
2024/02/28 06:27:27;;;;;;;74.70;34.00;;;4.80;99.90;;;;;;5086903;28;20491;-84
2024/02/28 06:29:54;;;;;;;70.60;33.37;;;4.70;99.90;;;;;;5101362;28;20468;-83
2024/02/28 06:32:21;;;;;;;64.90;31.30;;;4.80;99.90;;;;;;5085272;28;20450;-82
2024/02/28 06:34:48;;;;;;;67.17;29.90;;;4.80;99.90;;;;;;5096647;28;20457;-82
2024/02/28 06:37:16;;;;;;;73.77;30.70;;;4.80;99.90;;;;;;5099274;28;20450;-82
2024/02/28 06:39:43;;;;;;;73.13;31.47;;;5.00;99.90;;;;;;5102123;28;20994;-83
2024/02/28 06:42:09;;;;;;;68.37;30.77;;;4.90;99.90;;;;;;5107961;28;20460;-83
2024/02/28 06:44:36;;;;;;;61.23;30.40;;;4.90;99.90;;;;;;5107805;28;20520;-85
2024/02/28 06:47:03;;;;;;;69.70;33.57;;;4.90;99.90;;;;;;5114839;28;20567;-84
2024/02/28 06:49:30;;;;;;;74.57;33.70;;;5.00;99.90;;;;;;5115270;28;20474;-85
2024/02/28 06:51:59;;;;;;;68.37;31.60;;;5.00;99.90;;;;;;5108961;28;20979;-83
2024/02/28 06:54:29;;;;;;;68.50;31.70;;;5.00;99.90;;;;;;5113925;28;20495;-83
2024/02/28 06:56:56;;;;;;;73.60;35.10;;;5.00;99.90;;;;;;5109066;28;20903;-83
2024/02/28 06:59:24;;;;;;;81.17;34.30;;;4.90;99.90;;;;;;5107155;28;20508;-84
2024/02/28 07:01:51;;;;;;;75.40;33.47;;;5.00;99.90;;;;;;5110409;28;20493;-84
2024/02/28 07:04:18;;;;;;;71.37;33.23;;;5.60;99.90;;;;;;5106198;28;20546;-86
2024/02/28 07:06:44;;;;;;;70.93;31.60;;;5.10;99.90;;;;;;5109489;28;20480;-84
2024/02/28 07:09:15;;;;;;;74.23;34.90;;;5.20;99.90;;;;;;5100965;28;20871;-84
2024/02/28 07:11:46;;;;;;;78.87;35.40;;;5.30;99.90;;;;;;5101303;28;20795;-80
2024/02/28 07:14:12;;;;;;;87.10;38.80;;;5.20;99.90;;;;;;5097574;28;20478;-85
2024/02/28 07:16:41;;;;;;;87.43;33.37;;;5.20;99.90;;;;;;5099578;28;20453;-84
2024/02/28 07:19:07;;;;;;;89.10;37.97;;;5.20;99.90;;;;;;5098954;28;20450;-84
2024/02/28 07:21:36;;;;;;;79.97;34.27;;;5.30;99.90;;;;;;5094447;28;20514;-81
2024/02/28 07:24:04;;;;;;;79.27;35.60;;;5.40;99.90;;;;;;5098069;28;20469;-84
2024/02/28 07:26:31;;;;;;;74.87;34.83;;;5.40;99.90;;;;;;5101968;28;20517;-85
2024/02/28 07:28:59;;;;;;;71.73;34.33;;;5.40;99.90;;;;;;5100477;28;20447;-84
2024/02/28 07:31:26;;;;;;;74.47;34.93;;;5.40;99.90;;;;;;5100860;28;20582;-85
2024/02/28 07:33:53;;;;;;;66.93;34.40;;;5.50;99.90;;;;;;5083236;28;20482;-86
2024/02/28 07:36:20;;;;;;;83.73;37.03;;;5.50;99.90;;;;;;5093650;28;20492;-81
2024/02/28 07:38:47;;;;;;;87.10;34.67;;;5.40;99.90;;;;;;5106924;28;20499;-84
2024/02/28 07:41:14;;;;;;;76.90;34.53;;;5.50;99.90;;;;;;5088191;28;20446;-85
2024/02/28 07:43:43;;;;;;;87.27;38.30;;;5.40;99.90;;;;;;5105773;28;20512;-83
2024/02/28 07:46:11;;;;;;;74.73;33.80;;;5.50;99.90;;;;;;5117062;28;20516;-85
2024/02/28 07:48:39;;;;;;;70.20;35.30;;;5.50;99.90;;;;;;5107990;28;20441;-85
2024/02/28 07:51:05;;;;;;;75.20;35.07;;;5.40;99.90;;;;;;5101564;28;20449;-84
2024/02/28 07:53:32;;;;;;;74.80;35.07;;;5.60;99.90;;;;;;5102730;28;20503;-87
2024/02/28 07:55:59;;;;;;;68.47;32.80;;;5.70;99.90;;;;;;5096040;28;20454;-85
2024/02/28 07:58:26;;;;;;;64.93;32.10;;;5.70;99.90;;;;;;5098153;28;20538;-87
2024/02/28 08:00:53;;;;;;;74.57;34.17;;;5.70;99.90;;;;;;5106345;28;20462;-85
2024/02/28 08:03:21;;;;;;;64.63;32.13;;;5.60;99.90;;;;;;5100641;28;20482;-84
2024/02/28 08:05:48;;;;;;;65.07;30.37;;;5.40;99.90;;;;;;5106885;28;20527;-83
2024/02/28 08:08:15;;;;;;;65.77;30.07;;;5.50;99.90;;;;;;5110724;28;20927;-85
2024/02/28 08:10:42;;;;;;;67.37;32.67;;;5.50;99.90;;;;;;5112326;28;20526;-84
2024/02/28 08:13:09;;;;;;;60.00;30.27;;;5.50;99.90;;;;;;5105100;28;20967;-84
2024/02/28 08:15:36;;;;;;;55.43;26.90;;;5.60;99.90;;;;;;5099639;28;20528;-83
2024/02/28 08:18:02;;;;;;;58.23;29.67;;;5.70;99.90;;;;;;5099991;28;20521;-84
2024/02/28 08:20:30;;;;;;;55.80;30.03;;;5.80;99.90;;;;;;5103335;28;20454;-82
2024/02/28 08:22:58;;;;;;;61.63;30.93;;;5.90;99.90;;;;;;5106025;28;20552;-84
2024/02/28 08:25:25;;;;;;;63.33;31.03;;;6.00;99.90;;;;;;5094102;28;20519;-83
2024/02/28 08:27:52;;;;;;;66.67;30.77;;;6.10;99.90;;;;;;5091488;28;21073;-84
2024/02/28 08:30:19;;;;;;;63.07;29.10;;;6.20;99.90;;;;;;5104018;28;20526;-84
2024/02/28 08:32:45;;;;;;;62.87;26.90;;;6.20;99.90;;;;;;5105688;28;20503;-82
2024/02/28 08:35:12;;;;;;;61.40;29.63;;;6.20;99.90;;;;;;5105840;28;20497;-82
2024/02/28 08:37:41;;;;;;;59.57;29.67;;;6.10;99.90;;;;;;5105091;28;20456;-82
2024/02/28 08:40:09;;;;;;;64.93;28.07;;;6.00;99.90;;;;;;5106078;28;20537;-83
2024/02/28 08:42:36;;;;;;;66.17;32.33;;;6.00;99.90;;;;;;5089920;28;21275;-83
2024/02/28 08:45:03;;;;;;;57.43;28.60;;;6.00;99.90;;;;;;5102876;28;20478;-84
2024/02/28 08:47:30;;;;;;;58.70;27.87;;;6.20;99.90;;;;;;5106667;28;20504;-86
2024/02/28 08:49:57;;;;;;;68.27;31.40;;;6.40;99.90;;;;;;5106633;28;20464;-82
2024/02/28 08:52:24;;;;;;;59.60;29.20;;;6.30;99.90;;;;;;5096107;28;20540;-83
2024/02/28 08:54:53;;;;;;;62.83;30.43;;;6.50;99.90;;;;;;5106587;28;20480;-82
2024/02/28 08:57:22;;;;;;;58.53;29.40;;;6.60;99.90;;;;;;5098632;28;20459;-84
2024/02/28 08:59:49;;;;;;;69.33;31.13;;;6.50;99.90;;;;;;5092406;28;20454;-85
2024/02/28 09:02:15;;;;;;;60.53;31.90;;;6.50;99.90;;;;;;5105190;28;20454;-82
2024/02/28 09:04:42;;;;;;;55.97;26.70;;;6.50;99.90;;;;;;5106387;28;20447;-85
2024/02/28 09:07:09;;;;;;;64.80;31.93;;;6.70;99.90;;;;;;5103575;28;20606;-84
2024/02/28 09:09:37;;;;;;;52.63;27.10;;;7.00;99.90;;;;;;5105931;28;20486;-84
2024/02/28 09:12:06;;;;;;;57.07;27.33;;;7.30;99.90;;;;;;5104196;28;20518;-85
2024/02/28 09:14:33;;;;;;;55.47;29.50;;;7.50;99.90;;;;;;5104925;28;20501;-84
2024/02/28 09:17:03;;;;;;;67.13;30.90;;;7.70;99.90;;;;;;5090820;28;20529;-84
2024/02/28 09:19:30;;;;;;;52.40;29.20;;;7.80;99.90;;;;;;5103032;28;20524;-82
2024/02/28 09:21:57;;;;;;;60.93;28.97;;;8.10;99.90;;;;;;5106276;28;20487;-85
2024/02/28 09:24:24;;;;;;;58.20;28.87;;;8.00;99.90;;;;;;5103353;28;20484;-85
2024/02/28 09:26:51;;;;;;;57.07;31.17;;;7.80;99.90;;;;;;5114874;28;20541;-82
2024/02/28 09:29:19;;;;;;;59.20;31.17;;;7.60;99.90;;;;;;5108300;28;20468;-85
2024/02/28 09:31:46;;;;;;;58.93;30.93;;;7.40;99.90;;;;;;5095847;28;20488;-82
2024/02/28 09:34:13;;;;;;;64.97;31.63;;;7.30;99.90;;;;;;5100710;28;20476;-83
2024/02/28 09:36:42;;;;;;;53.83;29.07;;;7.10;99.90;;;;;;5102292;28;20481;-82
2024/02/28 09:39:09;;;;;;;54.50;30.80;;;7.50;99.90;;;;;;5083328;28;20462;-82
2024/02/28 09:41:36;;;;;;;73.73;35.80;;;7.60;99.90;;;;;;5104202;28;20508;-83
2024/02/28 09:44:03;;;;;;;53.67;31.83;;;7.60;99.90;;;;;;5096300;28;20481;-83
2024/02/28 09:46:34;;;;;;;56.63;29.07;;;7.40;99.90;;;;;;5105276;28;20444;-82
2024/02/28 09:49:04;;;;;;;50.23;27.93;;;7.50;99.90;;;;;;5105977;28;20850;-84
2024/02/28 09:51:33;;;;;;;49.93;28.20;;;7.50;99.90;;;;;;5094961;28;20466;-82
2024/02/28 09:54:01;;;;;;;50.70;27.03;;;7.70;99.90;;;;;;5098857;28;20527;-83
2024/02/28 09:56:28;;;;;;;45.67;24.83;;;8.10;99.90;;;;;;5105098;28;20463;-83
2024/02/28 09:58:55;;;;;;;51.37;26.53;;;8.20;99.90;;;;;;5105222;28;20471;-84
2024/02/28 10:01:23;;;;;;;49.70;27.27;;;8.20;99.90;;;;;;5105520;28;20531;-83
2024/02/28 10:03:53;;;;;;;54.43;27.60;;;8.20;99.90;;;;;;5104152;28;20558;-82
2024/02/28 10:06:20;;;;;;;44.40;24.70;;;8.00;99.90;;;;;;5100254;28;20457;-82
2024/02/28 10:08:47;;;;;;;41.50;23.57;;;8.40;99.90;;;;;;5105981;28;20579;-85
2024/02/28 10:11:20;;;;;;;44.40;25.63;;;8.40;99.90;;;;;;5104314;28;20486;-82
2024/02/28 10:13:46;;;;;;;44.40;24.10;;;8.50;99.90;;;;;;5089152;28;20873;-84
2024/02/28 10:16:14;;;;;;;44.00;23.60;;;8.70;99.90;;;;;;5105015;28;20511;-83
2024/02/28 10:18:41;;;;;;;48.83;25.13;;;8.90;99.90;;;;;;5104526;28;20484;-82
2024/02/28 10:21:09;;;;;;;50.57;27.83;;;8.90;99.90;;;;;;5089900;28;20466;-82
2024/02/28 10:23:37;;;;;;;44.83;24.50;;;9.10;99.90;;;;;;5094026;28;20506;-82
2024/02/28 10:26:04;;;;;;;41.93;24.53;;;9.50;99.90;;;;;;5102838;28;20481;-82
2024/02/28 10:28:31;;;;;;;47.30;26.90;;;9.60;99.90;;;;;;5104250;28;20564;-84
2024/02/28 10:30:58;;;;;;;47.00;26.57;;;9.60;99.90;;;;;;5096861;28;20452;-83
2024/02/28 10:33:29;;;;;;;44.67;25.70;;;9.80;99.90;;;;;;5100095;28;20487;-85
2024/02/28 10:35:57;;;;;;;44.13;24.10;;;10.70;99.90;;;;;;5101227;28;20451;-82
2024/02/28 10:38:27;;;;;;;40.93;23.30;;;11.80;99.90;;;;;;5101133;28;20530;-86
2024/02/28 10:40:55;;;;;;;37.50;20.87;;;12.40;99.90;;;;;;5095686;28;20486;-84
2024/02/28 10:43:22;;;;;;;36.87;23.63;;;12.50;99.90;;;;;;5097253;28;20498;-84
2024/02/28 10:45:50;;;;;;;32.40;19.73;;;12.50;99.90;;;;;;5093278;28;20456;-85
2024/02/28 10:48:17;;;;;;;33.77;20.67;;;12.60;99.90;;;;;;5095976;28;20564;-82
2024/02/28 10:50:45;;;;;;;30.30;20.40;;;14.20;99.90;;;;;;5102068;28;20453;-83
2024/02/28 10:53:14;;;;;;;37.00;20.07;;;15.00;99.90;;;;;;5099255;28;20474;-81
2024/02/28 10:55:44;;;;;;;36.00;22.40;;;14.70;99.90;;;;;;5099553;28;20456;-79
2024/02/28 10:58:11;;;;;;;38.63;22.40;;;14.30;99.90;;;;;;5091101;28;20455;-79
2024/02/28 11:00:41;;;;;;;39.90;22.50;;;13.80;99.90;;;;;;5078339;28;20501;-80
2024/02/28 11:03:09;;;;;;;35.80;21.77;;;13.90;99.90;;;;;;5088340;28;20542;-81
2024/02/28 11:05:38;;;;;;;36.43;21.77;;;13.60;99.90;;;;;;5099916;28;20544;-82
2024/02/28 11:08:06;;;;;;;33.27;20.63;;;13.20;99.90;;;;;;5094118;28;21040;-78
2024/02/28 11:10:33;;;;;;;33.60;21.27;;;13.50;99.90;;;;;;5100213;28;20481;-80
2024/02/28 11:13:02;;;;;;;36.40;21.40;;;14.20;99.90;;;;;;5101494;28;20550;-82
2024/02/28 11:15:28;;;;;;;31.77;19.60;;;14.30;99.90;;;;;;5096235;28;20451;-80
2024/02/28 11:17:55;;;;;;;38.80;22.90;;;13.80;99.90;;;;;;5097442;28;20470;-82
2024/02/28 11:20:22;;;;;;;33.40;19.73;;;14.20;99.90;;;;;;5089211;28;20457;-80
2024/02/28 11:22:50;;;;;;;32.60;21.77;;;15.50;99.90;;;;;;5081389;28;20468;-82
2024/02/28 11:25:17;;;;;;;30.07;20.30;;;16.10;97.60;;;;;;5080764;28;20530;-77
2024/02/28 11:27:47;;;;;;;43.90;24.67;;;16.80;95.40;;;;;;5091481;28;20535;-79
2024/02/28 11:30:16;;;;;;;32.83;22.97;;;16.30;94.50;;;;;;5101028;28;20532;-79
2024/02/28 11:32:43;;;;;;;31.30;22.17;;;16.10;94.70;;;;;;5094813;28;20541;-81
2024/02/28 11:35:11;;;;;;;28.60;20.13;;;15.80;94.40;;;;;;5100544;28;20470;-81
2024/02/28 11:37:39;;;;;;;31.63;21.13;;;15.50;94.60;;;;;;5100404;28;20850;-81
2024/02/28 11:40:09;;;;;;;30.87;20.20;;;15.90;94.20;;;;;;5093396;28;20446;-82
2024/02/28 11:42:36;;;;;;;29.03;20.57;;;16.60;93.40;;;;;;5101756;28;20461;-81
2024/02/28 11:45:05;;;;;;;29.17;20.67;;;16.70;93.20;;;;;;5101943;28;20455;-81
2024/02/28 11:47:33;;;;;;;28.93;21.80;;;17.70;92.30;;;;;;5090031;28;20489;-81
2024/02/28 11:50:01;;;;;;;31.00;22.30;;;18.90;91.60;;;;;;5082807;28;20456;-82
2024/02/28 11:52:29;;;;;;;28.63;21.53;;;20.00;88.80;;;;;;5089963;28;20459;-82
2024/02/28 11:54:56;;;;;;;31.83;23.83;;;20.50;85.90;;;;;;5101862;28;20529;-81
2024/02/28 11:57:23;;;;;;;26.20;18.63;;;19.30;82.40;;;;;;5102724;28;20481;-83
2024/02/28 11:59:51;;;;;;;25.53;20.30;;;19.90;82.30;;;;;;5085232;28;20451;-82
2024/02/28 12:02:18;;;;;;;29.97;19.57;;;20.60;82.20;;;;;;5085643;28;20459;-81
2024/02/28 12:04:49;;;;;;;30.57;22.10;;;21.60;79.80;;;;;;5086434;28;20526;-81
2024/02/28 12:07:16;;;;;;;23.83;17.50;;;21.60;76.20;;;;;;5101114;28;20469;-83
2024/02/28 12:09:45;;;;;;;26.17;19.33;;;21.30;73.10;;;;;;5103415;28;20581;-81
2024/02/28 12:12:13;;;;;;;24.80;18.53;;;21.30;73.30;;;;;;5105246;28;20465;-82
2024/02/28 12:14:40;;;;;;;30.67;20.30;;;21.50;73.30;;;;;;5105552;28;20508;-83
2024/02/28 12:17:08;;;;;;;27.53;19.73;;;21.20;72.00;;;;;;5105921;28;20450;-82
2024/02/28 12:19:36;;;;;;;26.50;17.73;;;21.00;70.40;;;;;;5107638;28;20481;-81
2024/02/28 12:22:04;;;;;;;24.73;19.13;;;21.30;74.10;;;;;;5107588;28;20466;-84
2024/02/28 12:24:31;;;;;;;26.00;20.27;;;21.10;70.30;;;;;;5103205;28;20470;-82
2024/02/28 12:26:58;;;;;;;24.20;18.20;;;21.60;69.20;;;;;;5107697;28;20460;-82
2024/02/28 12:29:24;;;;;;;24.80;18.80;;;22.60;67.70;;;;;;5097908;28;20479;-83
2024/02/28 12:31:51;;;;;;;24.50;19.70;;;22.40;68.90;;;;;;5106701;28;20456;-81
2024/02/28 12:34:18;;;;;;;24.43;18.17;;;22.30;67.60;;;;;;5106855;28;20537;-81
2024/02/28 12:36:45;;;;;;;21.40;16.80;;;22.70;66.70;;;;;;5105447;28;20458;-83
2024/02/28 12:39:13;;;;;;;21.43;17.20;;;22.50;66.20;;;;;;5106357;28;20484;-80